aviador You're here:

CYGW Decoded Metar

KUUJJUARARAPIK in QC, CANADA
Report Time2018-07-23 15:00:00
UTC Time2018-07-23 15:41:05
Flight Rules vfr VFR
Wind140° at 07 kt
W.Decomp.*RWY 21: 4.2 kt HW 5.6 kt LCW
W.Rank140° ranks 3
Current wind is below 140° avg. (8.1)
Visibility9999 m
Phenomena:N/A
Clouds:N/A
Expected CloudBase > 6,400 ft AGL from Temp-Dew spread
CeilingNone
Temp27°C (ISA +12)
Dew Point11°C (37% RH)
Heat Index26.7°C
AAT24.8°C
QNH1019 hPa
Density Alt1,411 ft
Elevation39 ft
Report Wrong Elevation
Raw Report
CYGW 231500Z AUTO 14007KT 100V170 9SM CLR 27/11 A3010 RMK SLP194
DENSITY ALT 1200FT=

Extra information for CYGW:More info

Metar Taf Metar & Taf Last 4 Metars F.Rules Stats Wind Profile Meteogram Temp Stats Airport Information Weather charts Add Link Nearby VenuesMetar ALERT Operation Metar Decoded Social comments